createdAt,value
2022-08-05T00:01:29.873Z,59.37
2022-08-05T00:06:39.748Z,59.97
2022-08-05T00:11:49.393Z,59.44
2022-08-05T00:16:57.800Z,59.79
2022-08-05T00:22:00.974Z,60.26
2022-08-05T00:27:04.569Z,60.77
2022-08-05T00:32:12.948Z,60.31
2022-08-05T00:37:18.249Z,60.27
2022-08-05T00:42:31.798Z,62.11
2022-08-05T00:47:56.729Z,63.99
2022-08-05T00:52:57.460Z,63.87
2022-08-05T00:57:59.846Z,63.44
2022-08-05T01:03:01.584Z,63.96
2022-08-05T01:08:42.369Z,63.71
2022-08-05T01:13:58.950Z,63.65
2022-08-05T01:19:11.281Z,64.13
2022-08-05T01:24:32.722Z,64.27
2022-08-05T01:29:39.084Z,64.01
2022-08-05T01:34:49.678Z,64.03
2022-08-05T01:39:53.394Z,63.99
2022-08-05T01:45:02.202Z,64.87
2022-08-05T01:50:07.230Z,64.57
2022-08-05T01:55:14.583Z,65.55
2022-08-05T02:00:18.619Z,65.20
2022-08-05T02:05:23.551Z,65.79
2022-08-05T02:10:28.704Z,66.47
2022-08-05T02:15:35.726Z,67.21
2022-08-05T02:20:47.432Z,67.77
2022-08-05T02:25:52.178Z,68.49
2022-08-05T02:30:59.030Z,68.85
2022-08-05T02:36:03.065Z,67.80
2022-08-05T02:41:17.277Z,67.06
2022-08-05T02:46:27.621Z,67.45
2022-08-05T02:52:03.966Z,66.64
2022-08-05T02:56:52.508Z,65.84
2022-08-05T03:01:58.217Z,65.62
2022-08-05T03:07:00.735Z,65.48
2022-08-05T03:12:02.896Z,66.02
2022-08-05T03:17:09.111Z,66.25
2022-08-05T03:22:16.619Z,66.48
2022-08-05T03:27:22.972Z,65.69
2022-08-05T03:32:33.797Z,67.48
2022-08-05T03:37:45.794Z,67.17
2022-08-05T03:42:52.052Z,67.95
2022-08-05T03:47:56.880Z,67.69
2022-08-05T03:55:50.894Z,66.99
2022-08-05T03:58:30.392Z,68.08
2022-08-05T04:03:38.131Z,68.17
2022-08-05T04:08:40.585Z,68.91
2022-08-05T04:13:50.281Z,67.61
2022-08-05T04:18:57.614Z,67.16
2022-08-05T04:24:06.591Z,65.95
2022-08-05T04:29:10.528Z,65.70
2022-08-05T04:34:19.685Z,66.13
2022-08-05T04:39:36.437Z,65.22
2022-08-05T04:44:38.492Z,63.99
2022-08-05T04:50:02.598Z,64.06
2022-08-05T04:55:14.784Z,62.47
2022-08-05T05:00:18.458Z,59.84
2022-08-05T05:05:29.166Z,59.46
2022-08-05T05:10:33.266Z,57.38
2022-08-05T05:15:57.634Z,56.33
2022-08-05T05:20:59.207Z,59.11
2022-08-05T05:26:02.481Z,60.76
2022-08-05T05:31:05.673Z,61.60
2022-08-05T05:36:15.688Z,62.05
2022-08-05T05:41:18.508Z,62.31
2022-08-05T05:46:20.665Z,63.20
2022-08-05T05:51:25.979Z,64.02
2022-08-05T05:56:33.065Z,64.55
2022-08-05T06:01:38.906Z,64.54
2022-08-05T06:06:46.659Z,64.85
2022-08-05T06:12:01.457Z,65.11
2022-08-05T06:17:22.109Z,65.58
2022-08-05T06:22:29.790Z,65.60
2022-08-05T06:28:10.686Z,62.23
2022-08-05T06:32:57.886Z,62.49
2022-08-05T06:38:04.278Z,64.27
2022-08-05T06:43:58.694Z,63.86
2022-08-05T06:48:55.797Z,62.96
2022-08-05T06:54:01.697Z,63.03
2022-08-05T06:59:09.527Z,64.84
2022-08-05T07:04:13.928Z,65.46
2022-08-05T07:09:17.398Z,66.31
2022-08-05T07:14:30.342Z,67.98
2022-08-05T07:24:58.994Z,67.60
2022-08-05T07:30:27.919Z,68.46
2022-08-05T07:36:02.606Z,69.32
2022-08-05T07:40:47.531Z,70.59
2022-08-05T07:45:58.753Z,70.60
2022-08-05T07:51:01.249Z,70.60
2022-08-05T07:56:59.930Z,69.79
2022-08-05T08:01:29.881Z,68.85
2022-08-05T08:06:32.310Z,69.37
2022-08-05T08:11:51.265Z,68.35
2022-08-05T08:16:57.352Z,66.41
2022-08-05T08:21:59.352Z,65.93
2022-08-05T08:27:07.120Z,65.94
2022-08-05T08:32:10.788Z,65.89
2022-08-05T08:37:13.110Z,65.71
2022-08-05T08:42:34.216Z,66.17
2022-08-05T08:48:05.917Z,66.75
2022-08-05T08:53:12.228Z,65.30
2022-08-05T08:58:16.993Z,65.24
2022-08-05T09:03:21.750Z,65.88
2022-08-05T09:08:26.519Z,66.57
2022-08-05T09:13:31.769Z,65.88
2022-08-05T09:18:44.292Z,64.83
2022-08-05T09:23:46.539Z,64.70
2022-08-05T09:28:59.177Z,63.64
2022-08-05T09:34:04.550Z,62.56
2022-08-05T09:39:16.540Z,61.75
2022-08-05T09:44:37.598Z,65.97
2022-08-05T09:50:00.823Z,68.30
2022-08-05T09:55:57.054Z,70.15
2022-08-05T10:00:30.930Z,67.77
2022-08-05T10:05:33.558Z,65.86
2022-08-05T10:10:38.727Z,63.93
2022-08-05T10:15:42.665Z,65.95
2022-08-05T10:20:48.407Z,66.57
2022-08-05T10:25:50.686Z,66.89
2022-08-05T10:32:52.720Z,66.83
2022-08-05T10:36:18.394Z,68.31
2022-08-05T10:41:46.436Z,66.28
2022-08-05T10:46:53.880Z,67.46
2022-08-05T10:52:00.237Z,66.89
2022-08-05T10:57:04.380Z,62.10
2022-08-05T11:02:14.969Z,60.29
2022-08-05T11:08:03.277Z,55.14
2022-08-05T11:12:55.740Z,53.57
2022-08-05T11:18:11.700Z,50.37
2022-08-05T11:24:05.317Z,50.27
2022-08-05T11:28:58.069Z,49.18
2022-08-05T11:34:09.124Z,49.93
2022-08-05T11:39:38.142Z,49.88
2022-08-05T11:44:53.943Z,50.23
2022-08-05T11:49:59.042Z,49.08
2022-08-05T11:55:07.687Z,47.20
2022-08-05T12:00:27.554Z,45.29
2022-08-05T12:05:39.966Z,46.63
2022-08-05T12:10:47.706Z,45.26
2022-08-05T12:15:50.906Z,45.61
2022-08-05T12:21:10.145Z,45.27
2022-08-05T12:26:12.493Z,45.08
2022-08-05T12:31:23.208Z,42.85
2022-08-05T12:36:37.933Z,42.05
2022-08-05T12:41:43.541Z,41.89
2022-08-05T12:46:54.193Z,43.02
2022-08-05T12:52:13.876Z,41.94
2022-08-05T12:57:19.740Z,44.86
2022-08-05T13:02:30.775Z,45.05
2022-08-05T13:07:59.325Z,42.28
2022-08-05T13:12:58.383Z,43.22
2022-08-05T13:18:01.350Z,43.28
2022-08-05T13:23:07.133Z,43.08
2022-08-05T13:28:10.629Z,43.46
2022-08-05T13:33:14.265Z,45.84
2022-08-05T13:38:38.514Z,46.68
2022-08-05T13:43:54.534Z,45.59
2022-08-05T13:49:00.883Z,46.34
2022-08-05T13:54:12.258Z,47.28
2022-08-05T13:59:19.452Z,46.65
2022-08-05T14:04:26.720Z,47.46
2022-08-05T14:09:30.569Z,45.53
2022-08-05T14:14:32.651Z,46.33
2022-08-05T14:19:55.393Z,46.39
2022-08-05T14:24:59.844Z,47.65
2022-08-05T14:30:01.687Z,48.25
2022-08-05T14:35:10.693Z,49.42
2022-08-05T14:40:16.836Z,49.26
2022-08-05T14:45:19.324Z,50.14
2022-08-05T14:50:21.010Z,50.16
2022-08-05T14:55:24.747Z,52.41
2022-08-05T15:00:29.427Z,55.06
2022-08-05T15:06:07.925Z,56.14
2022-08-05T15:10:56.244Z,56.61
2022-08-05T15:15:58.267Z,57.19
2022-08-05T15:21:07.437Z,57.89
2022-08-05T15:26:11.649Z,58.96
2022-08-05T15:31:13.770Z,60.13
2022-08-05T15:36:24.227Z,60.64
2022-08-05T15:41:56.443Z,60.18
2022-08-05T15:46:52.601Z,60.75
2022-08-05T15:52:04.492Z,61.84
2022-08-05T15:57:18.149Z,61.76
2022-08-05T16:02:25.592Z,62.02
2022-08-05T16:07:29.646Z,61.44
2022-08-05T16:12:33.521Z,60.76
2022-08-05T16:17:35.935Z,62.01
2022-08-05T16:22:38.341Z,63.28
2022-08-05T16:27:59.879Z,64.83
2022-08-05T16:33:05.009Z,65.90
2022-08-05T16:38:24.055Z,66.32
2022-08-05T16:43:32.190Z,65.94
2022-08-05T16:48:35.497Z,65.86
2022-08-05T16:54:04.180Z,65.93
2022-08-05T16:59:08.107Z,65.91
2022-08-05T17:04:10.365Z,66.93
2022-08-05T17:09:12.098Z,67.47
2022-08-05T17:14:34.307Z,67.81
2022-08-05T17:19:40.043Z,67.34
2022-08-05T17:24:46.413Z,67.20
2022-08-05T17:30:03.979Z,67.38
2022-08-05T17:35:07.421Z,66.38
2022-08-05T17:40:12.595Z,65.86
2022-08-05T17:45:18.019Z,65.36
2022-08-05T17:50:28.826Z,65.48
2022-08-05T17:55:38.001Z,65.51
2022-08-05T18:00:47.892Z,65.75
2022-08-05T18:05:53.595Z,66.89
2022-08-05T18:10:56.369Z,67.31
2022-08-05T18:16:00.498Z,67.60
2022-08-05T18:21:05.135Z,67.72
2022-08-05T18:26:18.179Z,68.10
2022-08-05T18:31:22.634Z,67.76
2022-08-05T18:36:28.047Z,65.06
2022-08-05T18:41:55.477Z,63.95
2022-08-05T18:46:54.110Z,62.93
2022-08-05T18:52:04.810Z,63.57
2022-08-05T18:57:10.940Z,63.06
2022-08-05T19:02:27.828Z,62.40
2022-08-05T19:07:42.329Z,60.89
2022-08-05T19:12:47.669Z,59.48
2022-08-05T19:17:59.024Z,59.08
2022-08-05T19:24:04.189Z,58.50
2022-08-05T19:28:34.507Z,59.30
2022-08-05T19:33:37.838Z,60.31
2022-08-05T19:38:42.215Z,61.28
2022-08-05T19:44:07.011Z,62.06
2022-08-05T19:49:12.488Z,62.01
2022-08-05T19:54:26.635Z,61.01
2022-08-05T20:00:00.590Z,60.96
2022-08-05T20:04:59.646Z,61.90
2022-08-05T20:10:04.746Z,62.09
2022-08-05T20:15:08.770Z,62.75
2022-08-05T20:20:13.099Z,63.75
2022-08-05T20:25:14.810Z,64.64
2022-08-05T20:30:18.248Z,66.96
2022-08-05T20:35:23.262Z,66.77
2022-08-05T20:40:25.692Z,66.69
2022-08-05T20:45:56.478Z,66.74
2022-08-05T20:50:52.576Z,67.09
2022-08-05T20:56:07.965Z,66.73
2022-08-05T21:01:11.381Z,67.26
2022-08-05T21:06:28.519Z,67.28
2022-08-05T21:12:06.588Z,67.25
2022-08-05T21:16:54.883Z,67.48
2022-08-05T21:21:58.165Z,68.09
2022-08-05T21:27:00.076Z,68.27
2022-08-05T21:32:03.529Z,68.75
2022-08-05T21:37:06.985Z,68.93
2022-08-05T21:42:30.775Z,69.29
2022-08-05T21:47:55.640Z,70.12
2022-08-05T21:52:59.173Z,70.20
2022-08-05T21:58:10.492Z,69.91
2022-08-05T22:03:13.850Z,70.27
2022-08-05T22:08:22.449Z,70.69
2022-08-05T22:14:34.342Z,70.01
2022-08-05T22:18:49.028Z,69.35
2022-08-05T22:24:01.190Z,68.27
2022-08-05T22:29:06.547Z,67.16
2022-08-05T22:34:08.530Z,67.17
2022-08-05T22:39:16.344Z,67.95
2022-08-05T22:44:19.235Z,68.30
2022-08-05T22:50:17.431Z,68.62
2022-08-05T22:54:48.951Z,68.24
2022-08-05T22:59:54.141Z,68.66
2022-08-05T23:04:56.456Z,67.22
2022-08-05T23:10:02.037Z,67.06
2022-08-05T23:15:09.012Z,64.25
2022-08-05T23:20:17.505Z,64.06
2022-08-05T23:25:51.905Z,63.72
2022-08-05T23:30:53.663Z,62.53
2022-08-05T23:35:56.665Z,62.29
2022-08-05T23:41:00.192Z,62.42
2022-08-05T23:46:05.077Z,62.70
2022-08-05T23:51:22.103Z,63.07
2022-08-05T23:56:27.323Z,63.96
